createdAt,value
2018-08-13T00:00:50.075Z,22.40
2018-08-13T00:03:18.076Z,22.40
2018-08-13T00:05:46.215Z,22.40
2018-08-13T00:08:14.715Z,22.30
2018-08-13T00:10:42.809Z,22.30
2018-08-13T00:13:10.683Z,22.10
2018-08-13T00:15:38.723Z,21.70
2018-08-13T00:18:07.441Z,21.70
2018-08-13T00:20:35.391Z,21.60
2018-08-13T00:23:03.256Z,21.50
2018-08-13T00:25:31.277Z,21.50
2018-08-13T00:27:59.139Z,21.50
2018-08-13T00:30:27.028Z,21.40
2018-08-13T00:32:54.876Z,21.60
2018-08-13T00:35:22.714Z,21.70
2018-08-13T00:37:51.304Z,21.70
2018-08-13T00:40:19.111Z,21.80
2018-08-13T00:42:46.918Z,21.80
2018-08-13T00:45:14.856Z,21.80
2018-08-13T00:47:42.985Z,21.80
2018-08-13T00:50:12.511Z,21.80
2018-08-13T00:52:40.582Z,21.80
2018-08-13T00:55:10.180Z,21.90
2018-08-13T00:57:38.895Z,21.90
2018-08-13T01:00:12.381Z,21.80
2018-08-13T01:02:40.808Z,21.80
2018-08-13T01:05:08.736Z,21.80
2018-08-13T01:07:36.804Z,21.70
2018-08-13T01:10:07.367Z,21.60
2018-08-13T01:12:35.289Z,21.60
2018-08-13T01:15:03.637Z,21.50
2018-08-13T01:17:32.425Z,21.50
2018-08-13T01:20:00.327Z,21.60
2018-08-13T01:22:28.118Z,21.50
2018-08-13T01:24:55.921Z,21.50
2018-08-13T01:27:29.256Z,21.40
2018-08-13T01:29:57.099Z,21.20
2018-08-13T01:32:25.118Z,20.90
2018-08-13T01:34:52.838Z,20.80
2018-08-13T01:37:20.700Z,20.60
2018-08-13T01:39:48.715Z,20.40
2018-08-13T01:42:16.581Z,20.40
2018-08-13T01:44:44.444Z,20.30
2018-08-13T01:47:12.201Z,20.50
2018-08-13T01:49:39.924Z,20.60
2018-08-13T01:52:07.771Z,20.40
2018-08-13T01:54:35.572Z,20.60
2018-08-13T01:57:05.423Z,20.60
2018-08-13T01:59:33.239Z,20.50
2018-08-13T02:02:01.104Z,20.20
2018-08-13T02:04:28.995Z,20.10
2018-08-13T02:06:56.870Z,20.50
2018-08-13T02:09:31.535Z,20.50
2018-08-13T02:11:59.789Z,20.50
2018-08-13T02:14:27.600Z,20.40
2018-08-13T02:16:55.703Z,20.10
2018-08-13T02:19:23.906Z,20.30
2018-08-13T02:21:51.914Z,20.30
2018-08-13T02:24:19.707Z,20.20
2018-08-13T02:26:47.595Z,20.40
2018-08-13T02:29:15.410Z,20.00
2018-08-13T02:31:43.264Z,19.90
2018-08-13T02:34:11.002Z,19.90
2018-08-13T02:36:39.042Z,19.80
2018-08-13T02:39:08.550Z,19.90
2018-08-13T02:41:36.436Z,19.90
2018-08-13T02:44:04.327Z,19.80
2018-08-13T02:46:32.335Z,19.90
2018-08-13T02:49:00.097Z,20.00
2018-08-13T02:51:27.883Z,19.80
2018-08-13T02:53:55.707Z,19.80
2018-08-13T02:56:23.555Z,19.90
2018-08-13T02:58:51.364Z,19.50
2018-08-13T03:01:19.309Z,20.00
2018-08-13T03:03:47.127Z,20.10
2018-08-13T03:06:14.960Z,19.80
2018-08-13T03:08:42.807Z,20.20
2018-08-13T03:11:10.740Z,20.20
2018-08-13T03:13:38.564Z,20.00
2018-08-13T03:16:06.446Z,20.00
2018-08-13T03:18:34.276Z,19.80
2018-08-13T03:21:02.028Z,19.80
2018-08-13T03:23:29.919Z,19.80
2018-08-13T03:25:57.788Z,20.00
2018-08-13T03:28:25.632Z,19.70
2018-08-13T03:30:53.650Z,19.70
2018-08-13T03:33:21.480Z,19.60
2018-08-13T03:35:49.205Z,19.60
2018-08-13T03:38:17.016Z,19.80
2018-08-13T03:40:44.844Z,19.70
2018-08-13T03:43:12.652Z,19.60
2018-08-13T03:45:40.553Z,19.60
2018-08-13T03:48:08.446Z,19.60
2018-08-13T03:50:36.244Z,19.50
2018-08-13T03:53:04.075Z,19.60
2018-08-13T03:55:31.955Z,19.90
2018-08-13T03:57:59.743Z,19.40
2018-08-13T04:00:27.713Z,20.20
2018-08-13T04:02:55.557Z,20.30
2018-08-13T04:05:23.445Z,20.10
2018-08-13T04:07:51.402Z,20.10
2018-08-13T04:10:20.156Z,19.90
2018-08-13T04:12:48.014Z,19.80
2018-08-13T04:15:15.858Z,19.60
2018-08-13T04:17:44.460Z,19.80
2018-08-13T04:20:13.310Z,19.80
2018-08-13T04:22:41.323Z,19.70
2018-08-13T04:25:09.912Z,19.70
2018-08-13T04:27:38.440Z,19.80
2018-08-13T04:30:08.873Z,19.70
2018-08-13T04:32:36.731Z,19.70
2018-08-13T04:35:04.763Z,19.50
2018-08-13T04:37:32.623Z,19.20
2018-08-13T04:40:01.057Z,19.30
2018-08-13T04:42:28.844Z,19.30
2018-08-13T04:44:56.707Z,19.30
2018-08-13T04:47:24.868Z,19.40
2018-08-13T04:49:52.733Z,19.60
2018-08-13T04:52:20.619Z,19.60
2018-08-13T04:54:48.432Z,19.70
2018-08-13T04:57:16.244Z,19.90
2018-08-13T04:59:44.187Z,20.00
2018-08-13T05:02:12.010Z,20.20
2018-08-13T05:04:39.838Z,20.30
2018-08-13T05:07:07.659Z,20.50
2018-08-13T05:09:35.588Z,20.60
2018-08-13T05:12:03.464Z,20.60
2018-08-13T05:14:31.212Z,20.40
2018-08-13T05:16:59.032Z,20.90
2018-08-13T05:19:26.872Z,20.90
2018-08-13T05:21:54.620Z,20.90
2018-08-13T05:24:22.460Z,21.00
2018-08-13T05:26:50.370Z,21.00
2018-08-13T05:29:18.207Z,21.20
2018-08-13T05:31:46.076Z,21.30
2018-08-13T05:34:13.975Z,21.30
2018-08-13T05:36:41.816Z,21.40
2018-08-13T05:39:10.834Z,21.30
2018-08-13T05:41:38.679Z,21.40
2018-08-13T05:44:07.183Z,21.40
2018-08-13T05:46:34.984Z,21.00
2018-08-13T05:49:03.005Z,21.40
2018-08-13T05:51:30.916Z,21.20
2018-08-13T05:53:58.884Z,21.30
2018-08-13T05:56:26.724Z,21.40
2018-08-13T05:58:54.545Z,21.40
2018-08-13T06:01:22.450Z,21.50
2018-08-13T06:03:50.236Z,21.70
2018-08-13T06:06:18.083Z,21.70
2018-08-13T06:08:45.875Z,21.80
2018-08-13T06:11:13.748Z,21.80
2018-08-13T06:13:41.536Z,21.80
2018-08-13T06:16:09.601Z,21.80
2018-08-13T06:18:37.483Z,21.80
2018-08-13T06:21:05.347Z,21.90
2018-08-13T06:23:33.190Z,21.90
2018-08-13T06:26:00.984Z,21.80
2018-08-13T06:28:28.792Z,21.60
2018-08-13T06:30:56.698Z,21.40
2018-08-13T06:33:24.944Z,21.40
2018-08-13T06:35:52.660Z,21.30
2018-08-13T06:38:20.417Z,21.40
2018-08-13T06:40:48.204Z,21.30
2018-08-13T06:43:16.115Z,21.40
2018-08-13T06:45:43.859Z,21.40
2018-08-13T06:48:12.135Z,21.30
2018-08-13T06:50:40.038Z,21.20
2018-08-13T06:53:07.923Z,20.70
2018-08-13T06:55:35.777Z,21.00
2018-08-13T06:58:03.626Z,21.10
2018-08-13T07:00:31.521Z,21.10
2018-08-13T07:02:59.241Z,21.00
2018-08-13T07:05:26.971Z,21.10
2018-08-13T07:07:54.756Z,21.30
2018-08-13T07:10:22.633Z,21.40
2018-08-13T07:12:50.626Z,21.60
2018-08-13T07:15:18.439Z,21.70
2018-08-13T07:17:46.285Z,21.80
2018-08-13T07:20:16.206Z,21.90
2018-08-13T07:22:44.411Z,21.90
2018-08-13T07:25:12.899Z,21.90
2018-08-13T07:27:41.755Z,21.90
2018-08-13T07:30:12.750Z,21.90
2018-08-13T07:32:40.899Z,22.00
2018-08-13T07:35:08.904Z,22.10
2018-08-13T07:37:36.910Z,22.30
2018-08-13T07:40:06.537Z,22.10
2018-08-13T07:42:37.219Z,22.30
2018-08-13T07:45:05.811Z,22.40
2018-08-13T07:47:33.769Z,22.50
2018-08-13T07:50:01.905Z,22.50
2018-08-13T07:52:29.752Z,22.60
2018-08-13T07:54:57.546Z,22.70
2018-08-13T07:57:25.367Z,22.80
2018-08-13T07:59:53.224Z,22.80
2018-08-13T08:02:20.973Z,22.90
2018-08-13T08:04:48.744Z,22.90
2018-08-13T08:07:19.628Z,22.90
2018-08-13T08:09:47.494Z,22.70
2018-08-13T08:12:15.528Z,22.60
2018-08-13T08:14:43.373Z,22.50
2018-08-13T08:17:11.104Z,22.40
2018-08-13T08:19:41.628Z,22.20
2018-08-13T08:22:09.520Z,22.10
2018-08-13T08:24:37.298Z,21.90
2018-08-13T08:27:05.879Z,21.80
2018-08-13T08:29:33.786Z,21.60
2018-08-13T08:32:02.027Z,21.60
2018-08-13T08:34:29.839Z,21.50
2018-08-13T08:36:57.706Z,21.40
2018-08-13T08:39:26.001Z,21.30
2018-08-13T08:41:53.886Z,21.30
2018-08-13T08:44:21.867Z,21.30
2018-08-13T08:46:49.849Z,21.10
2018-08-13T08:49:17.639Z,21.50
2018-08-13T08:51:45.541Z,21.50
2018-08-13T08:54:13.350Z,21.60
2018-08-13T08:56:41.109Z,21.60
2018-08-13T08:59:09.808Z,21.60
2018-08-13T09:01:37.978Z,21.40
2018-08-13T09:04:06.595Z,21.50
2018-08-13T09:06:34.525Z,21.40
2018-08-13T09:09:02.506Z,21.00
2018-08-13T09:11:30.946Z,21.40
2018-08-13T09:13:58.888Z,21.50
2018-08-13T09:16:26.840Z,21.60
2018-08-13T09:21:09.750Z,21.70
2018-08-13T09:25:50.692Z,21.80
2018-08-13T09:28:29.736Z,21.30
2018-08-13T09:31:08.741Z,21.00
2018-08-13T09:33:47.820Z,20.90
2018-08-13T09:36:15.588Z,20.80
2018-08-13T09:38:47.271Z,20.70
2018-08-13T09:41:15.223Z,20.50
2018-08-13T09:43:43.092Z,20.30
2018-08-13T09:46:11.542Z,20.20
2018-08-13T09:48:39.259Z,20.00
2018-08-13T09:51:07.101Z,19.90
2018-08-13T09:53:38.197Z,19.90
2018-08-13T09:56:06.222Z,19.80
2018-08-13T09:58:34.083Z,20.10
2018-08-13T10:01:07.624Z,20.00
2018-08-13T10:03:35.507Z,19.90
2018-08-13T10:06:03.609Z,20.00
2018-08-13T10:08:31.461Z,19.80
2018-08-13T10:10:59.324Z,19.60
2018-08-13T10:13:27.125Z,20.00
2018-08-13T10:15:55.029Z,20.00
2018-08-13T10:18:22.895Z,20.10
2018-08-13T10:20:50.784Z,19.90
2018-08-13T10:23:18.659Z,20.20
2018-08-13T10:25:46.463Z,20.10
2018-08-13T10:28:14.241Z,20.40
2018-08-13T10:30:42.016Z,20.40
2018-08-13T10:33:10.739Z,20.40
2018-08-13T10:35:38.700Z,20.40
2018-08-13T10:38:07.740Z,20.40
2018-08-13T10:40:35.896Z,20.50
2018-08-13T10:43:03.830Z,20.50
2018-08-13T10:45:33.325Z,20.40
2018-08-13T10:48:01.451Z,20.50
2018-08-13T10:50:30.235Z,20.60
2018-08-13T10:52:58.127Z,20.50
2018-08-13T10:55:26.207Z,20.60
2018-08-13T10:57:54.144Z,20.20
2018-08-13T11:00:23.387Z,20.40
2018-08-13T11:02:52.254Z,20.50
2018-08-13T11:05:20.208Z,20.50
2018-08-13T11:07:48.309Z,20.60
2018-08-13T11:10:16.293Z,20.20
2018-08-13T11:12:44.171Z,20.80
2018-08-13T11:15:14.785Z,21.00
2018-08-13T11:17:42.749Z,20.90
2018-08-13T11:20:10.782Z,21.10
2018-08-13T11:22:40.007Z,21.10
2018-08-13T11:25:10.505Z,21.20
2018-08-13T11:27:39.242Z,21.20
2018-08-13T11:30:09.873Z,21.40
2018-08-13T11:32:38.349Z,21.50
2018-08-13T11:35:07.450Z,21.30
2018-08-13T11:37:37.500Z,21.60
2018-08-13T11:40:11.139Z,21.40
2018-08-13T11:42:39.458Z,21.30
2018-08-13T11:45:07.776Z,21.30
2018-08-13T11:47:36.962Z,21.20
2018-08-13T11:50:08.568Z,21.30
2018-08-13T11:52:36.843Z,21.10
2018-08-13T11:55:05.021Z,21.10
2018-08-13T11:57:33.540Z,21.20
2018-08-13T12:00:04.770Z,21.20
2018-08-13T12:02:32.802Z,21.20
2018-08-13T12:05:01.418Z,21.30
2018-08-13T12:07:29.346Z,21.20
2018-08-13T12:09:58.670Z,21.50
2018-08-13T12:12:26.770Z,21.40
2018-08-13T12:14:55.269Z,21.40
2018-08-13T12:17:24.057Z,21.40
2018-08-13T12:19:52.252Z,21.30
2018-08-13T12:22:20.921Z,21.20
2018-08-13T12:24:49.060Z,21.10
2018-08-13T12:27:18.281Z,21.00
2018-08-13T12:29:46.034Z,20.70
2018-08-13T12:32:14.200Z,20.90
2018-08-13T12:34:43.423Z,20.80
2018-08-13T12:37:14.454Z,20.90
2018-08-13T12:39:45.275Z,21.10
2018-08-13T12:42:15.856Z,21.30
2018-08-13T12:44:54.422Z,21.50
2018-08-13T12:47:27.929Z,21.60
2018-08-13T12:50:01.683Z,21.70
2018-08-13T12:52:31.793Z,21.70
2018-08-13T12:55:00.574Z,21.70
2018-08-13T12:57:28.737Z,21.70
2018-08-13T12:59:57.392Z,21.30
2018-08-13T13:05:30.423Z,22.20
2018-08-13T13:07:59.303Z,22.20
2018-08-13T13:10:27.877Z,22.30
2018-08-13T13:12:56.414Z,22.30
2018-08-13T13:15:24.818Z,22.50
2018-08-13T13:17:53.489Z,22.60
2018-08-13T13:20:22.943Z,22.90
2018-08-13T13:22:51.935Z,22.90
2018-08-13T13:25:20.072Z,22.80
2018-08-13T13:27:48.650Z,22.80
2018-08-13T13:30:17.486Z,22.90
2018-08-13T13:32:46.008Z,23.20
2018-08-13T13:35:16.294Z,23.50
2018-08-13T13:37:45.469Z,23.60
2018-08-13T13:40:16.136Z,23.70
2018-08-13T13:42:49.075Z,23.90
2018-08-13T13:45:18.011Z,23.90
2018-08-13T13:47:47.204Z,23.80
2018-08-13T13:50:17.105Z,23.80
2018-08-13T13:52:45.852Z,23.90
2018-08-13T13:55:14.943Z,23.90
2018-08-13T13:57:43.525Z,24.00
2018-08-13T14:00:16.727Z,23.80
2018-08-13T14:02:45.261Z,23.80
2018-08-13T14:05:13.960Z,23.80
2018-08-13T14:07:42.252Z,23.80
2018-08-13T14:10:13.340Z,23.80
2018-08-13T14:12:41.475Z,24.00
2018-08-13T14:15:10.934Z,23.90
2018-08-13T14:17:39.236Z,23.80
2018-08-13T14:20:09.395Z,23.80
2018-08-13T14:22:37.782Z,23.80
2018-08-13T14:25:06.529Z,23.80
2018-08-13T14:27:35.153Z,24.00
2018-08-13T14:30:04.863Z,23.80
2018-08-13T14:32:33.160Z,23.70
2018-08-13T14:35:01.288Z,23.60
2018-08-13T14:37:30.020Z,23.70
2018-08-13T14:39:58.173Z,23.70
2018-08-13T14:42:26.144Z,24.00
2018-08-13T14:44:54.417Z,24.20
2018-08-13T14:47:22.644Z,24.40
2018-08-13T14:49:51.093Z,24.50
2018-08-13T14:52:18.892Z,24.50
2018-08-13T14:54:47.280Z,24.40
2018-08-13T14:57:15.308Z,24.50
2018-08-13T14:59:43.224Z,24.60
2018-08-13T15:04:52.818Z,24.60
2018-08-13T15:07:21.695Z,24.80
2018-08-13T15:09:49.909Z,24.90
2018-08-13T15:12:17.827Z,24.90
2018-08-13T15:15:12.723Z,24.90
2018-08-13T15:17:40.833Z,24.90
2018-08-13T15:20:16.687Z,24.90
2018-08-13T15:22:44.626Z,24.80
2018-08-13T15:25:12.655Z,24.70
2018-08-13T15:27:40.669Z,24.70
2018-08-13T15:30:12.388Z,24.70
2018-08-13T15:32:40.280Z,24.70
2018-08-13T15:35:08.453Z,24.70
2018-08-13T15:37:36.367Z,24.60
2018-08-13T15:40:05.240Z,24.40
2018-08-13T15:42:33.477Z,24.40
2018-08-13T15:45:01.604Z,24.20
2018-08-13T15:47:29.431Z,24.00
2018-08-13T15:49:57.457Z,23.50
2018-08-13T15:52:25.383Z,23.00
2018-08-13T15:54:53.439Z,22.50
2018-08-13T15:57:21.315Z,22.10
2018-08-13T15:59:49.085Z,21.80
2018-08-13T16:02:16.988Z,21.70
2018-08-13T16:04:44.854Z,21.60
2018-08-13T16:07:12.796Z,21.40
2018-08-13T16:09:40.951Z,21.40
2018-08-13T16:12:09.243Z,21.50
2018-08-13T16:14:37.636Z,21.60
2018-08-13T16:17:06.175Z,22.00
2018-08-13T16:19:34.434Z,22.20
2018-08-13T16:22:03.229Z,22.20
2018-08-13T16:24:31.855Z,22.30
2018-08-13T16:27:00.091Z,22.40
2018-08-13T16:29:28.112Z,22.70
2018-08-13T16:32:07.087Z,22.60
2018-08-13T16:34:57.509Z,22.70
2018-08-13T16:37:25.589Z,22.70
2018-08-13T16:39:53.660Z,22.60
2018-08-13T16:42:22.006Z,22.50
2018-08-13T16:44:50.688Z,22.60
2018-08-13T16:47:18.973Z,22.60
2018-08-13T16:49:49.725Z,22.40
2018-08-13T16:52:18.076Z,22.40
2018-08-13T16:54:46.992Z,22.50
2018-08-13T16:57:15.020Z,22.70
2018-08-13T16:59:42.877Z,22.90
2018-08-13T17:02:10.684Z,23.10
2018-08-13T17:04:38.573Z,23.10
2018-08-13T17:07:06.788Z,23.10
2018-08-13T17:09:34.880Z,23.00
2018-08-13T17:12:02.928Z,23.00
2018-08-13T17:14:30.926Z,23.10
2018-08-13T17:16:58.828Z,23.10
2018-08-13T17:19:26.865Z,23.00
2018-08-13T17:21:54.987Z,23.00
2018-08-13T17:24:22.888Z,22.90
2018-08-13T17:26:50.769Z,22.90
2018-08-13T17:29:18.730Z,22.90
2018-08-13T17:31:46.712Z,22.90
2018-08-13T17:34:15.222Z,22.90
2018-08-13T17:36:43.292Z,23.10
2018-08-13T17:39:13.748Z,23.10
2018-08-13T17:41:42.579Z,23.00
2018-08-13T17:44:11.634Z,23.10
2018-08-13T17:46:40.002Z,23.10
2018-08-13T17:49:08.949Z,23.10
2018-08-13T17:51:37.521Z,23.00
2018-08-13T17:54:05.705Z,23.00
2018-08-13T17:56:33.749Z,23.00
2018-08-13T17:59:01.926Z,22.90
2018-08-13T18:01:30.226Z,22.90
2018-08-13T18:03:58.273Z,23.00
2018-08-13T18:06:26.995Z,22.90
2018-08-13T18:08:55.025Z,23.00
2018-08-13T18:11:23.011Z,23.00
2018-08-13T18:13:51.057Z,22.90
2018-08-13T18:16:19.794Z,22.90
2018-08-13T18:18:48.153Z,22.90
2018-08-13T18:21:16.676Z,22.90
2018-08-13T18:23:44.923Z,22.80
2018-08-13T18:26:12.957Z,22.90
2018-08-13T18:28:41.200Z,22.90
2018-08-13T18:31:09.383Z,22.90
2018-08-13T18:33:37.456Z,22.90
2018-08-13T18:36:05.467Z,22.80
2018-08-13T18:38:34.523Z,22.90
2018-08-13T18:41:02.697Z,22.90
2018-08-13T18:43:30.667Z,22.80
2018-08-13T18:45:58.853Z,22.80
2018-08-13T18:48:26.944Z,22.80
2018-08-13T18:50:55.220Z,22.70
2018-08-13T18:53:23.402Z,22.70
2018-08-13T18:55:51.808Z,22.60
2018-08-13T18:58:20.415Z,22.60
2018-08-13T19:00:51.352Z,22.60
2018-08-13T19:03:19.656Z,22.50
2018-08-13T19:05:47.639Z,22.60
2018-08-13T19:08:15.982Z,22.50
2018-08-13T19:13:25.099Z,22.50
2018-08-13T19:15:53.370Z,22.50
2018-08-13T19:18:21.610Z,22.50
2018-08-13T19:20:49.761Z,22.40
2018-08-13T19:23:17.799Z,22.30
2018-08-13T19:25:45.883Z,22.30
2018-08-13T19:28:14.150Z,21.90
2018-08-13T19:30:43.668Z,22.30
2018-08-13T19:33:11.798Z,22.30
2018-08-13T19:35:39.801Z,22.30
2018-08-13T19:38:07.928Z,22.00
2018-08-13T19:40:36.050Z,22.30
2018-08-13T19:43:04.072Z,22.10
2018-08-13T19:45:32.056Z,22.20
2018-08-13T19:48:00.043Z,21.70
2018-08-13T19:50:28.774Z,22.10
2018-08-13T19:52:56.728Z,22.10
2018-08-13T19:55:24.707Z,21.60
2018-08-13T19:57:52.857Z,22.00
2018-08-13T20:00:24.062Z,22.00
2018-08-13T20:02:52.374Z,21.90
2018-08-13T20:05:22.043Z,22.00
2018-08-13T20:07:52.999Z,21.90
2018-08-13T20:10:21.360Z,21.80
2018-08-13T20:12:49.863Z,21.40
2018-08-13T20:15:22.051Z,21.80
2018-08-13T20:17:50.006Z,21.80
2018-08-13T20:20:19.370Z,21.80
2018-08-13T20:22:48.099Z,21.80
2018-08-13T20:25:17.005Z,21.70
2018-08-13T20:27:45.485Z,21.70
2018-08-13T20:30:15.839Z,21.70
2018-08-13T20:32:45.272Z,21.70
2018-08-13T20:35:13.529Z,21.60
2018-08-13T20:37:41.861Z,21.70
2018-08-13T20:40:12.241Z,21.70
2018-08-13T20:42:40.735Z,21.70
2018-08-13T20:45:11.337Z,21.70
2018-08-13T20:47:39.289Z,21.60
2018-08-13T20:50:09.852Z,21.60
2018-08-13T20:52:37.900Z,21.90
2018-08-13T20:55:08.993Z,21.60
2018-08-13T20:57:37.185Z,21.70
2018-08-13T21:00:06.977Z,21.40
2018-08-13T21:02:35.839Z,21.50
2018-08-13T21:05:03.759Z,21.50
2018-08-13T21:07:31.720Z,21.40
2018-08-13T21:09:59.845Z,21.40
2018-08-13T21:12:27.765Z,21.30
2018-08-13T21:14:55.926Z,21.30
2018-08-13T21:17:24.048Z,21.30
2018-08-13T21:19:52.143Z,21.30
2018-08-13T21:22:20.208Z,21.30
2018-08-13T21:24:48.175Z,21.20
2018-08-13T21:27:16.052Z,21.30
2018-08-13T21:29:43.976Z,21.30
2018-08-13T21:32:11.899Z,21.30
2018-08-13T21:34:39.903Z,21.30
2018-08-13T21:37:07.793Z,21.20
2018-08-13T21:39:35.848Z,21.20
2018-08-13T21:42:03.824Z,21.40
2018-08-13T21:44:31.750Z,21.50
2018-08-13T21:46:59.868Z,21.40
2018-08-13T21:49:27.785Z,21.10
2018-08-13T21:51:55.710Z,21.20
2018-08-13T21:54:23.610Z,21.20
2018-08-13T21:56:51.497Z,21.10
2018-08-13T21:59:19.403Z,21.00
2018-08-13T22:01:47.469Z,21.00
2018-08-13T22:04:16.818Z,21.30
2018-08-13T22:06:44.944Z,20.90
2018-08-13T22:09:12.923Z,21.00
2018-08-13T22:11:41.011Z,21.00
2018-08-13T22:14:09.363Z,20.90
2018-08-13T22:16:37.240Z,21.10
2018-08-13T22:19:05.729Z,21.10
2018-08-13T22:21:33.656Z,21.20
2018-08-13T22:24:12.663Z,21.10
2018-08-13T22:26:40.463Z,21.10
2018-08-13T22:29:08.266Z,21.10
2018-08-13T22:31:36.298Z,21.20
2018-08-13T22:34:04.364Z,21.20
2018-08-13T22:36:32.315Z,20.90
2018-08-13T22:39:00.166Z,21.00
2018-08-13T22:41:30.755Z,20.50
2018-08-13T22:43:58.599Z,21.20
2018-08-13T22:46:26.467Z,21.00
2018-08-13T22:48:54.372Z,20.90
2018-08-13T22:51:23.424Z,21.00
2018-08-13T22:53:51.366Z,21.00
2018-08-13T22:56:19.550Z,21.00
2018-08-13T22:58:47.397Z,21.00
2018-08-13T23:01:15.286Z,21.10
2018-08-13T23:03:43.142Z,21.10
2018-08-13T23:06:11.060Z,21.10
2018-08-13T23:08:39.035Z,21.10
2018-08-13T23:11:06.929Z,21.00
2018-08-13T23:13:34.730Z,21.00
2018-08-13T23:16:03.099Z,21.00
2018-08-13T23:18:30.972Z,20.80
2018-08-13T23:20:58.772Z,21.10
2018-08-13T23:23:26.520Z,21.20
2018-08-13T23:25:54.312Z,21.10
2018-08-13T23:28:22.135Z,21.10
2018-08-13T23:30:50.289Z,21.10
2018-08-13T23:33:18.014Z,21.10
2018-08-13T23:35:45.752Z,21.10
2018-08-13T23:38:13.497Z,20.90
2018-08-13T23:40:41.367Z,21.20
2018-08-13T23:43:09.179Z,21.10
2018-08-13T23:45:37.006Z,21.10
2018-08-13T23:48:04.973Z,21.10
2018-08-13T23:50:32.813Z,21.10
2018-08-13T23:53:01.360Z,21.30
2018-08-13T23:55:31.124Z,21.20
2018-08-13T23:57:59.290Z,21.20
